Time;durP1;ratioP1;P1;durP2;ratioP2;P2;SDS_P1;SDS_P2;PMS_P1;PMS_P2;Temp;Humidity;BMP_temperature;BMP_pressure;BME280_temperature;BME280_humidity;BME280_pressure;Samples;Min_cycle;Max_cycle;Signal;HPM_P1;HPM_P2
2022/04/05 00:01:37;;;;;;;8.35;2.08;;;14.20;99.90;;;;;;5040421;28;20039;-78
2022/04/05 00:04:02;;;;;;;16.08;1.95;;;15.40;99.90;;;;;;5008482;28;20083;-78
2022/04/05 00:06:28;;;;;;;15.15;3.45;;;14.40;99.90;;;;;;5026074;28;20056;-78
2022/04/05 00:08:54;;;;;;;11.88;1.80;;;15.30;99.90;;;;;;5016100;28;20303;-78
2022/04/05 00:11:19;;;;;;;9.90;1.98;;;13.90;99.90;;;;;;5022423;28;20045;-78
2022/04/05 00:13:45;;;;;;;12.18;2.95;;;14.70;99.90;;;;;;5024500;28;20083;-79
2022/04/05 00:16:11;;;;;;;9.40;2.00;;;14.30;99.90;;;;;;5007237;28;20049;-76
2022/04/05 00:18:38;;;;;;;11.52;2.30;;;13.90;99.90;;;;;;5028431;28;20032;-76
2022/04/05 00:21:05;;;;;;;13.10;2.45;;;14.30;99.90;;;;;;5060086;28;20041;-76
2022/04/05 00:23:31;;;;;;;8.90;1.83;;;14.40;99.90;;;;;;5037362;28;20064;-78
2022/04/05 00:25:56;;;;;;;11.68;1.92;;;15.20;99.90;;;;;;5031910;28;20045;-78
2022/04/05 00:28:22;;;;;;;15.30;2.67;;;15.30;99.90;;;;;;5030378;28;20233;-77
2022/04/05 00:30:48;;;;;;;10.02;2.35;;;15.00;99.90;;;;;;5039483;28;20033;-76
2022/04/05 00:33:14;;;;;;;12.25;2.70;;;14.80;99.90;;;;;;5019536;28;20067;-77
2022/04/05 00:35:39;;;;;;;9.27;2.45;;;13.90;99.90;;;;;;5040044;28;20037;-76
2022/04/05 00:38:06;;;;;;;14.98;3.05;;;14.30;99.90;;;;;;5023731;28;20212;-76
2022/04/05 00:40:31;;;;;;;6.35;2.40;;;14.00;99.90;;;;;;5014614;28;20040;-76
2022/04/05 00:42:58;;;;;;;12.65;2.75;;;14.50;99.90;;;;;;5040052;28;20033;-77
2022/04/05 00:45:24;;;;;;;14.32;3.20;;;14.10;99.90;;;;;;5041207;28;20414;-76
2022/04/05 00:47:51;;;;;;;16.48;2.88;;;14.20;99.90;;;;;;5023078;28;20032;-77
2022/04/05 00:50:22;;;;;;;14.13;2.60;;;14.80;99.90;;;;;;5023046;28;20079;-77
2022/04/05 00:52:48;;;;;;;18.58;2.83;;;14.30;99.90;;;;;;5059350;28;20088;-76
2022/04/05 00:55:18;;;;;;;9.63;1.92;;;13.90;99.90;;;;;;5013670;28;20107;-77
2022/04/05 00:57:46;;;;;;;10.57;2.03;;;14.80;99.90;;;;;;5040393;28;20343;-78
2022/04/05 01:00:14;;;;;;;16.17;2.42;;;13.70;99.90;;;;;;5057429;28;20041;-78
2022/04/05 01:02:41;;;;;;;11.40;2.40;;;14.80;99.90;;;;;;5054913;28;20029;-78
2022/04/05 01:05:07;;;;;;;8.23;1.90;;;13.70;99.90;;;;;;5023145;28;20215;-77
2022/04/05 01:07:34;;;;;;;11.13;1.80;;;13.60;99.90;;;;;;5032496;28;20037;-77
2022/04/05 01:10:00;;;;;;;13.40;2.45;;;14.80;99.90;;;;;;5073207;28;20029;-78
2022/04/05 01:12:26;;;;;;;6.40;1.67;;;14.30;99.90;;;;;;5056169;28;20041;-78
2022/04/05 01:14:52;;;;;;;19.27;2.20;;;13.30;99.90;;;;;;5056891;28;20025;-79
2022/04/05 01:17:18;;;;;;;8.88;1.88;;;14.10;99.90;;;;;;5007089;28;20060;-77
2022/04/05 01:19:48;;;;;;;10.43;1.88;;;13.50;99.90;;;;;;5022919;28;20026;-80
2022/04/05 01:22:14;;;;;;;7.43;1.63;;;13.30;99.90;;;;;;5041189;28;20304;-78
2022/04/05 01:24:40;;;;;;;12.82;2.03;;;14.30;99.90;;;;;;5027540;28;20040;-79
2022/04/05 01:27:08;;;;;;;14.30;1.98;;;14.30;99.90;;;;;;5035568;28;20083;-77
2022/04/05 01:29:34;;;;;;;12.50;2.30;;;14.20;99.90;;;;;;5060980;28;20056;-77
2022/04/05 01:32:03;;;;;;;14.25;1.83;;;14.20;99.90;;;;;;5052710;28;20036;-79
2022/04/05 01:34:31;;;;;;;9.45;1.90;;;13.40;99.90;;;;;;5041612;28;20073;-77
2022/04/05 01:36:59;;;;;;;12.38;1.90;;;13.10;99.90;;;;;;5047562;28;20096;-77
2022/04/05 01:39:27;;;;;;;11.50;1.65;;;13.20;99.90;;;;;;5022829;28;20029;-77
2022/04/05 01:41:58;;;;;;;11.95;1.65;;;13.80;99.90;;;;;;5035794;28;20314;-77
2022/04/05 01:44:25;;;;;;;10.93;1.92;;;12.80;99.90;;;;;;5038143;28;20461;-77
2022/04/05 01:46:51;;;;;;;9.15;1.67;;;13.20;99.90;;;;;;5034908;28;20029;-77
2022/04/05 01:49:17;;;;;;;16.23;1.98;;;13.10;99.90;;;;;;5039411;28;20315;-76
2022/04/05 01:51:44;;;;;;;14.00;2.40;;;13.60;99.90;;;;;;5038055;28;20083;-77
2022/04/05 01:54:13;;;;;;;7.00;1.40;;;13.30;99.90;;;;;;5036998;28;20050;-77
2022/04/05 01:56:43;;;;;;;12.65;2.28;;;12.70;99.90;;;;;;5054500;28;20064;-76
2022/04/05 01:59:13;;;;;;;7.80;1.52;;;13.30;99.90;;;;;;5069055;28;20311;-77
2022/04/05 02:01:39;;;;;;;13.18;1.50;;;12.50;99.90;;;;;;5037233;28;20118;-77
2022/04/05 02:04:05;;;;;;;12.02;2.30;;;12.50;99.90;;;;;;5040208;28;20048;-78
2022/04/05 02:06:31;;;;;;;7.68;1.60;;;13.30;99.90;;;;;;5044778;28;20045;-77
2022/04/05 02:08:57;;;;;;;6.28;1.40;;;12.80;99.90;;;;;;5022525;28;20326;-77
2022/04/05 02:11:23;;;;;;;11.32;1.58;;;13.10;99.90;;;;;;5021039;28;20033;-77
2022/04/05 02:13:49;;;;;;;9.88;2.08;;;12.80;99.90;;;;;;5038142;28;20030;-76
2022/04/05 02:16:15;;;;;;;7.30;1.60;;;12.30;99.90;;;;;;5072451;28;20112;-77
2022/04/05 02:18:41;;;;;;;15.48;1.90;;;12.60;99.90;;;;;;5039009;28;20034;-75
2022/04/05 02:21:06;;;;;;;14.55;2.03;;;12.20;99.90;;;;;;5032399;28;20086;-78
2022/04/05 02:23:32;;;;;;;8.40;2.30;;;12.70;99.90;;;;;;5042195;28;20329;-76
2022/04/05 02:25:58;;;;;;;13.98;2.03;;;12.30;99.90;;;;;;5046020;28;20215;-76
2022/04/05 02:28:25;;;;;;;12.32;2.22;;;11.90;99.90;;;;;;5026411;28;20090;-77
2022/04/05 02:30:51;;;;;;;10.07;1.40;;;12.20;99.90;;;;;;5005093;28;20049;-78
2022/04/05 02:33:17;;;;;;;13.57;2.33;;;12.60;99.90;;;;;;5055697;28;20300;-76
2022/04/05 02:35:43;;;;;;;12.88;2.28;;;12.50;99.90;;;;;;5045313;28;20045;-76
2022/04/05 02:38:09;;;;;;;14.00;2.10;;;12.00;99.90;;;;;;5050063;28;20228;-76
2022/04/05 02:40:35;;;;;;;10.07;2.00;;;12.00;99.90;;;;;;5042572;28;20033;-75
2022/04/05 02:43:02;;;;;;;15.65;2.10;;;12.20;99.90;;;;;;5041945;28;20141;-76
2022/04/05 02:45:27;;;;;;;11.77;2.17;;;12.60;99.90;;;;;;5040278;28;20338;-75
2022/04/05 02:47:53;;;;;;;17.30;3.03;;;11.80;99.90;;;;;;5050817;28;20018;-75
2022/04/05 02:50:19;;;;;;;15.32;1.92;;;12.80;99.90;;;;;;5026052;28;20079;-75
2022/04/05 02:52:45;;;;;;;14.00;2.38;;;11.90;99.90;;;;;;5023565;28;20216;-75
2022/04/05 02:55:11;;;;;;;13.90;1.90;;;12.80;99.90;;;;;;5058958;28;20052;-76
2022/04/05 02:57:41;;;;;;;13.73;2.03;;;12.50;99.90;;;;;;5035835;28;20193;-75
2022/04/05 03:00:11;;;;;;;11.88;2.28;;;12.50;99.90;;;;;;5025267;28;20036;-74
2022/04/05 03:02:37;;;;;;;11.35;2.17;;;11.80;99.90;;;;;;5024837;28;20029;-76
2022/04/05 03:05:07;;;;;;;16.85;2.55;;;12.00;99.90;;;;;;5041973;28;20342;-77
2022/04/05 03:07:34;;;;;;;21.73;2.30;;;12.10;99.90;;;;;;5037616;28;20263;-76
2022/04/05 03:10:11;;;;;;;12.32;2.35;;;12.50;99.90;;;;;;5049042;28;20096;-77
2022/04/05 03:12:37;;;;;;;11.98;2.15;;;12.60;99.90;;;;;;5058292;28;20033;-76
2022/04/05 03:15:06;;;;;;;15.27;1.98;;;12.00;99.90;;;;;;5025590;28;20083;-77
2022/04/05 03:17:33;;;;;;;17.60;3.45;;;12.80;99.90;;;;;;5040454;28;20256;-77
2022/04/05 03:20:03;;;;;;;17.27;3.00;;;12.50;99.90;;;;;;5056911;28;20087;-75
2022/04/05 03:22:29;;;;;;;15.88;2.67;;;12.50;99.90;;;;;;5042069;28;20099;-76
2022/04/05 03:24:55;;;;;;;17.38;2.28;;;12.20;99.90;;;;;;5020957;28;20137;-77
2022/04/05 03:27:21;;;;;;;15.63;2.85;;;11.80;99.90;;;;;;5054293;28;20197;-75
2022/04/05 03:29:47;;;;;;;13.75;2.78;;;12.20;99.90;;;;;;5038421;28;20028;-76
2022/04/05 03:32:13;;;;;;;15.07;2.47;;;11.80;99.90;;;;;;5054984;28;20100;-77
2022/04/05 03:34:39;;;;;;;16.27;2.88;;;12.60;99.90;;;;;;5007806;28;20244;-75
2022/04/05 03:37:05;;;;;;;12.95;3.47;;;11.70;99.90;;;;;;5022742;28;20037;-77
2022/04/05 03:39:31;;;;;;;13.13;1.50;;;11.70;99.90;;;;;;5021807;28;20069;-76
2022/04/05 03:41:57;;;;;;;12.85;2.67;;;11.60;99.90;;;;;;5076355;28;20036;-74
2022/04/05 03:44:24;;;;;;;18.00;2.25;;;12.30;99.90;;;;;;5043238;28;20065;-75
2022/04/05 03:46:50;;;;;;;12.27;2.42;;;12.50;99.90;;;;;;5040973;28;20041;-75
2022/04/05 03:49:16;;;;;;;10.65;2.10;;;11.60;99.90;;;;;;5038550;28;20029;-75
2022/04/05 03:51:42;;;;;;;14.32;3.17;;;12.50;99.90;;;;;;5041206;28;20068;-75
2022/04/05 03:54:08;;;;;;;11.35;2.28;;;12.30;99.90;;;;;;5040935;28;20057;-76
2022/04/05 03:56:33;;;;;;;13.07;2.00;;;12.40;99.90;;;;;;5024359;28;20209;-76
2022/04/05 03:59:02;;;;;;;12.85;2.83;;;12.50;99.90;;;;;;5030560;28;20135;-77
2022/04/05 04:01:28;;;;;;;9.43;2.33;;;11.70;99.90;;;;;;5040011;28;20030;-75
2022/04/05 04:03:53;;;;;;;11.63;1.73;;;11.70;99.90;;;;;;5024755;28;20037;-76
2022/04/05 04:06:19;;;;;;;7.13;1.92;;;11.70;99.90;;;;;;5038302;28;20044;-77
2022/04/05 04:08:45;;;;;;;15.88;2.28;;;12.50;99.90;;;;;;5069027;28;20079;-75
2022/04/05 04:11:10;;;;;;;11.60;1.52;;;12.50;99.90;;;;;;5056261;28;20223;-76
2022/04/05 04:13:36;;;;;;;9.27;1.55;;;12.40;99.90;;;;;;5062541;28;20037;-76
2022/04/05 04:16:03;;;;;;;15.65;2.30;;;12.30;99.90;;;;;;5039386;28;20108;-75
2022/04/05 04:18:29;;;;;;;12.32;1.95;;;12.50;99.90;;;;;;5038589;28;20049;-76
2022/04/05 04:20:55;;;;;;;9.52;1.48;;;11.80;99.90;;;;;;5022559;28;20072;-75
2022/04/05 04:23:21;;;;;;;9.20;2.03;;;11.80;99.90;;;;;;5040385;28;20072;-77
2022/04/05 04:25:46;;;;;;;9.57;1.52;;;11.50;99.90;;;;;;5040235;28;20298;-76
2022/04/05 04:28:12;;;;;;;10.77;1.52;;;11.50;99.90;;;;;;5036585;28;20232;-75
2022/04/05 04:30:39;;;;;;;10.70;2.63;;;12.10;99.90;;;;;;5040611;28;20061;-79
2022/04/05 04:33:05;;;;;;;12.50;2.45;;;12.00;99.90;;;;;;5023315;28;20064;-78
2022/04/05 04:35:31;;;;;;;10.95;2.00;;;11.50;99.90;;;;;;5040237;28;20057;-77
2022/04/05 04:38:01;;;;;;;7.68;1.50;;;11.80;99.90;;;;;;5038502;28;20114;-79
2022/04/05 04:40:27;;;;;;;12.77;2.50;;;11.70;99.90;;;;;;5023782;28;20043;-78
2022/04/05 04:42:52;;;;;;;12.68;2.40;;;11.50;99.90;;;;;;5020865;28;20041;-78
2022/04/05 04:45:18;;;;;;;11.52;1.98;;;11.50;99.90;;;;;;5038976;28;20053;-75
2022/04/05 04:47:44;;;;;;;15.18;2.42;;;12.00;99.90;;;;;;5006381;28;20125;-77
2022/04/05 04:50:13;;;;;;;11.98;2.25;;;11.40;99.90;;;;;;5023632;28;20148;-78
2022/04/05 04:52:39;;;;;;;10.60;1.80;;;12.20;99.90;;;;;;5022281;28;20115;-78
2022/04/05 04:55:06;;;;;;;10.00;1.70;;;11.30;99.90;;;;;;5063130;28;20041;-75
2022/04/05 04:57:38;;;;;;;7.45;1.40;;;11.50;99.90;;;;;;5022865;28;20359;-77
2022/04/05 05:00:05;;;;;;;5.40;1.45;;;12.00;99.90;;;;;;5084697;28;20037;-76
2022/04/05 05:02:43;;;;;;;14.35;2.00;;;11.60;99.90;;;;;;5023611;28;20037;-76
2022/04/05 05:05:09;;;;;;;6.28;1.45;;;12.00;99.90;;;;;;5037510;28;20129;-76
2022/04/05 05:07:34;;;;;;;8.48;1.45;;;12.30;99.90;;;;;;5039732;28;20068;-77
2022/04/05 05:10:00;;;;;;;10.52;1.83;;;11.90;99.90;;;;;;5030341;28;20036;-77
2022/04/05 05:12:26;;;;;;;12.05;1.92;;;11.80;99.90;;;;;;5039666;28;20343;-77
2022/04/05 05:14:51;;;;;;;13.07;1.92;;;12.30;99.90;;;;;;5036738;28;20041;-77
2022/04/05 05:17:17;;;;;;;7.07;1.65;;;12.30;99.90;;;;;;5054155;28;20108;-77
2022/04/05 05:19:43;;;;;;;13.68;2.35;;;11.30;99.90;;;;;;5003176;28;20026;-75
2022/04/05 05:22:09;;;;;;;11.88;1.58;;;11.60;99.90;;;;;;5038545;28;20069;-76
2022/04/05 05:24:36;;;;;;;25.10;4.35;;;12.40;99.90;;;;;;5041267;28;20037;-74
2022/04/05 05:27:01;;;;;;;15.70;2.03;;;11.30;99.90;;;;;;5039404;28;20079;-76
2022/04/05 05:29:27;;;;;;;9.52;2.03;;;12.30;99.90;;;;;;5040476;28;20033;-76
2022/04/05 05:31:53;;;;;;;11.02;2.28;;;11.70;99.90;;;;;;5040185;28;20289;-75
2022/04/05 05:34:22;;;;;;;15.77;2.60;;;12.20;99.90;;;;;;5007623;28;20120;-77
2022/04/05 05:36:48;;;;;;;10.10;2.05;;;12.10;99.90;;;;;;5025084;28;20061;-76
2022/04/05 05:39:14;;;;;;;8.38;2.17;;;12.10;99.90;;;;;;5039826;28;20037;-76
2022/04/05 05:41:40;;;;;;;8.27;2.30;;;11.50;99.90;;;;;;5022210;28;20023;-76
2022/04/05 05:44:05;;;;;;;11.23;2.10;;;12.60;99.90;;;;;;5040704;28;20477;-76
2022/04/05 05:46:31;;;;;;;19.42;3.78;;;12.20;99.90;;;;;;5008169;28;20087;-75
2022/04/05 05:48:57;;;;;;;12.77;2.42;;;12.70;99.90;;;;;;5039243;28;20113;-75
2022/04/05 05:51:22;;;;;;;17.90;3.08;;;12.60;99.90;;;;;;5034875;28;20383;-77
2022/04/05 05:53:48;;;;;;;8.30;1.90;;;12.60;99.90;;;;;;5057851;28;20323;-75
2022/04/05 05:56:14;;;;;;;9.73;1.75;;;12.80;99.90;;;;;;5056092;28;20076;-75
2022/04/05 05:58:40;;;;;;;17.88;2.97;;;11.80;99.90;;;;;;5038030;28;20101;-76
2022/04/05 06:01:06;;;;;;;12.15;2.30;;;12.50;99.90;;;;;;5055693;28;20216;-76
2022/04/05 06:03:32;;;;;;;10.10;2.28;;;12.50;99.90;;;;;;5055663;28;20100;-77
2022/04/05 06:05:58;;;;;;;11.68;2.42;;;12.80;99.90;;;;;;5023277;28;20068;-76
2022/04/05 06:08:24;;;;;;;9.57;2.10;;;13.00;99.90;;;;;;5038278;28;20112;-77
2022/04/05 06:10:49;;;;;;;18.35;2.63;;;12.80;99.90;;;;;;5039441;28;20033;-77
2022/04/05 06:13:16;;;;;;;15.25;3.80;;;13.10;99.90;;;;;;5038052;28;20033;-76
2022/04/05 06:15:42;;;;;;;11.50;2.00;;;12.40;99.90;;;;;;5022731;28;20115;-77
2022/04/05 06:18:07;;;;;;;7.70;1.92;;;13.20;99.90;;;;;;5021454;28;20029;-78
2022/04/05 06:20:33;;;;;;;10.68;2.13;;;12.10;99.90;;;;;;5005536;28;20029;-76
2022/04/05 06:23:04;;;;;;;12.82;2.55;;;13.00;99.90;;;;;;5038080;28;20266;-78
2022/04/05 06:25:32;;;;;;;14.82;3.42;;;12.30;99.90;;;;;;5038373;28;20041;-75
2022/04/05 06:28:03;;;;;;;8.07;1.83;;;12.00;99.90;;;;;;5038859;28;20037;-75
2022/04/05 06:30:29;;;;;;;14.18;2.97;;;12.30;99.90;;;;;;5071546;28;20107;-76
2022/04/05 06:33:05;;;;;;;10.23;2.30;;;13.00;99.90;;;;;;5038120;28;20097;-78
2022/04/05 06:35:30;;;;;;;11.40;2.40;;;12.30;99.90;;;;;;5034405;28;20049;-76
2022/04/05 06:37:56;;;;;;;9.02;2.38;;;12.10;99.90;;;;;;5022890;28;20219;-76
2022/04/05 06:40:22;;;;;;;11.95;2.60;;;12.70;99.90;;;;;;5039219;28;20084;-75
2022/04/05 06:42:47;;;;;;;12.38;2.42;;;13.30;99.90;;;;;;5037496;28;20053;-76
2022/04/05 06:45:17;;;;;;;13.75;2.40;;;12.30;99.90;;;;;;5038302;28;20323;-76
2022/04/05 06:47:43;;;;;;;12.63;2.60;;;13.00;99.90;;;;;;5055794;28;20379;-74
2022/04/05 06:50:11;;;;;;;8.38;1.80;;;12.70;99.90;;;;;;5021693;28;20318;-74
2022/04/05 06:52:38;;;;;;;12.43;2.35;;;13.00;99.90;;;;;;5022048;28;20037;-74
2022/04/05 06:55:05;;;;;;;11.20;2.08;;;13.40;99.90;;;;;;5069961;28;20091;-75
2022/04/05 06:57:31;;;;;;;16.73;2.72;;;12.40;99.90;;;;;;5036944;28;20134;-75
2022/04/05 06:59:57;;;;;;;11.05;1.85;;;13.40;99.90;;;;;;5022715;28;20249;-76
2022/04/05 07:02:22;;;;;;;11.43;2.50;;;13.20;99.90;;;;;;5036536;28;20302;-75
2022/04/05 07:04:48;;;;;;;7.22;2.00;;;13.50;99.90;;;;;;5018590;28;20102;-75
2022/04/05 07:07:14;;;;;;;8.43;2.05;;;12.30;99.90;;;;;;5019611;28;20239;-76
2022/04/05 07:09:40;;;;;;;8.00;1.88;;;13.60;99.90;;;;;;5072348;28;20100;-75
2022/04/05 07:12:09;;;;;;;12.23;2.28;;;12.40;99.90;;;;;;5040538;28;20377;-75
2022/04/05 07:14:35;;;;;;;11.13;1.83;;;13.40;99.90;;;;;;5024701;28;20044;-74
2022/04/05 07:17:00;;;;;;;8.50;2.33;;;12.80;99.90;;;;;;5054011;28;20030;-75
2022/04/05 07:19:26;;;;;;;12.57;2.22;;;13.50;99.90;;;;;;5008579;28;20346;-75
2022/04/05 07:21:52;;;;;;;8.85;2.25;;;12.50;99.90;;;;;;5024748;28;20039;-74
2022/04/05 07:24:18;;;;;;;8.57;2.65;;;12.80;99.90;;;;;;5041849;28;20025;-74
2022/04/05 07:26:45;;;;;;;8.55;2.17;;;13.10;99.90;;;;;;5040969;28;20132;-74
2022/04/05 07:29:10;;;;;;;9.68;2.05;;;13.20;99.90;;;;;;5042399;28;20252;-75
2022/04/05 07:31:36;;;;;;;8.57;2.53;;;13.40;99.90;;;;;;5024640;28;20041;-74
2022/04/05 07:34:03;;;;;;;7.82;1.92;;;12.70;99.90;;;;;;5041152;28;20302;-77
2022/04/05 07:36:33;;;;;;;6.63;2.38;;;13.70;99.90;;;;;;5039192;28;20156;-75
2022/04/05 07:38:58;;;;;;;14.25;2.58;;;12.80;99.90;;;;;;5057564;28;20331;-75
2022/04/05 07:41:24;;;;;;;9.57;2.30;;;13.20;99.90;;;;;;5041823;28;20033;-76
2022/04/05 07:43:50;;;;;;;5.85;1.67;;;13.10;99.90;;;;;;5042273;28;20041;-77
2022/04/05 07:46:16;;;;;;;9.93;2.35;;;13.50;99.90;;;;;;5041084;28;20121;-77
2022/04/05 07:48:42;;;;;;;10.73;2.97;;;13.00;99.90;;;;;;5009628;28;20033;-77
2022/04/05 07:51:09;;;;;;;6.15;1.80;;;13.00;99.90;;;;;;5009583;28;20048;-75
2022/04/05 07:53:37;;;;;;;8.52;2.15;;;13.10;99.90;;;;;;5057759;28;20068;-75
2022/04/05 07:56:04;;;;;;;7.85;2.42;;;12.00;99.90;;;;;;5024037;28;20029;-79
2022/04/05 07:58:29;;;;;;;10.20;2.35;;;12.70;99.90;;;;;;5040490;28;20048;-75
2022/04/05 08:00:56;;;;;;;7.78;1.90;;;11.90;99.90;;;;;;5024581;28;20068;-74
2022/04/05 08:03:22;;;;;;;5.93;1.50;;;12.60;99.90;;;;;;5057494;28;20247;-76
2022/04/05 08:05:49;;;;;;;9.45;1.80;;;12.90;99.90;;;;;;5023967;28;20441;-75
2022/04/05 08:08:20;;;;;;;6.47;1.80;;;12.90;99.90;;;;;;5073681;28;20033;-77
2022/04/05 08:10:47;;;;;;;7.68;2.08;;;12.10;99.90;;;;;;5024382;28;20212;-78
2022/04/05 08:13:12;;;;;;;7.80;2.63;;;12.20;99.90;;;;;;5074003;28;20041;-77
2022/04/05 08:15:41;;;;;;;8.18;2.65;;;12.90;99.90;;;;;;5023902;28;20036;-77
2022/04/05 08:18:09;;;;;;;7.72;2.30;;;12.60;99.90;;;;;;5073662;28;20037;-79
2022/04/05 08:20:36;;;;;;;9.35;2.38;;;12.70;99.90;;;;;;5056677;28;20379;-76
2022/04/05 08:23:02;;;;;;;7.88;2.33;;;12.30;99.90;;;;;;5040627;28;20045;-76
2022/04/05 08:25:28;;;;;;;9.20;2.45;;;12.10;99.90;;;;;;5040510;28;20041;-78
2022/04/05 08:27:54;;;;;;;12.50;2.50;;;12.10;99.90;;;;;;5039036;28;20041;-77
2022/04/05 08:30:20;;;;;;;8.05;2.33;;;12.20;99.90;;;;;;5073462;28;20029;-76
2022/04/05 08:32:47;;;;;;;5.80;2.28;;;12.10;99.90;;;;;;5056888;28;20045;-75
2022/04/05 08:35:16;;;;;;;8.93;2.28;;;12.90;99.90;;;;;;5073382;28;20060;-77
2022/04/05 08:37:42;;;;;;;9.77;2.50;;;12.80;99.90;;;;;;5040039;28;20350;-75
2022/04/05 08:40:09;;;;;;;6.43;2.17;;;12.50;99.90;;;;;;5040442;28;20243;-75
2022/04/05 08:42:36;;;;;;;12.32;2.20;;;13.10;99.90;;;;;;5056876;28;20043;-76
2022/04/05 08:45:06;;;;;;;9.02;2.17;;;12.80;99.90;;;;;;5005006;28;20310;-74
2022/04/05 08:47:34;;;;;;;8.63;2.10;;;12.30;99.90;;;;;;5015422;28;20029;-74
2022/04/05 08:50:02;;;;;;;9.60;2.63;;;12.70;99.90;;;;;;5067156;28;20052;-75
2022/04/05 08:52:28;;;;;;;9.02;2.08;;;13.00;99.90;;;;;;5027804;28;20536;-75
2022/04/05 08:54:54;;;;;;;6.47;1.95;;;13.20;99.90;;;;;;5033168;28;20080;-75
2022/04/05 08:57:20;;;;;;;12.18;3.03;;;12.60;99.90;;;;;;5037924;28;20105;-75
2022/04/05 08:59:46;;;;;;;10.10;2.25;;;12.60;99.90;;;;;;5033181;28;20312;-75
2022/04/05 09:02:14;;;;;;;8.75;2.47;;;13.00;99.90;;;;;;5033568;28;20049;-75
2022/04/05 09:04:40;;;;;;;8.30;2.47;;;12.10;99.90;;;;;;5066749;28;20359;-75
2022/04/05 09:07:23;;;;;;;6.72;2.42;;;12.10;99.90;;;;;;5033761;28;20111;-75
2022/04/05 09:10:06;;;;;;;9.50;2.33;;;12.80;99.90;;;;;;5033124;28;20045;-75
2022/04/05 09:12:42;;;;;;;9.32;2.35;;;13.00;99.90;;;;;;5032817;28;20075;-75
2022/04/05 09:15:09;;;;;;;7.75;2.40;;;12.20;99.90;;;;;;5013970;28;20054;-75
2022/04/05 09:17:43;;;;;;;6.60;2.10;;;12.60;99.90;;;;;;5013638;28;20221;-75
2022/04/05 09:20:10;;;;;;;9.38;2.80;;;11.90;99.90;;;;;;5030764;28;20564;-75
2022/04/05 09:22:36;;;;;;;12.73;3.63;;;12.20;99.90;;;;;;5009918;28;20034;-75
2022/04/05 09:25:11;;;;;;;12.10;3.28;;;12.70;99.90;;;;;;5013722;28;20046;-75
2022/04/05 09:27:53;;;;;;;;;;;12.00;99.90;;;;;;5013827;28;20268;-75
2022/04/05 09:30:31;;;;;;;9.65;3.67;;;11.60;99.90;;;;;;5028197;28;20118;-75
2022/04/05 09:32:58;;;;;;;8.57;3.30;;;11.60;99.90;;;;;;5001502;28;20045;-73
2022/04/05 09:35:30;;;;;;;10.05;3.10;;;12.40;99.90;;;;;;5013377;28;20066;-73
2022/04/05 09:38:17;;;;;;;5.60;2.38;;;12.40;99.90;;;;;;5029068;28;20099;-73
2022/04/05 09:40:44;;;;;;;11.25;3.25;;;12.20;99.90;;;;;;5061861;28;20052;-74
2022/04/05 09:43:17;;;;;;;7.85;2.30;;;12.60;99.90;;;;;;5033302;28;20037;-74
2022/04/05 09:45:57;;;;;;;4.38;1.75;;;12.10;99.90;;;;;;5032915;28;20432;-74
2022/04/05 09:48:25;;;;;;;4.97;1.88;;;12.20;99.90;;;;;;5031997;28;20374;-74
2022/04/05 09:51:00;;;;;;;4.80;1.80;;;12.00;99.90;;;;;;5058758;28;20053;-73
2022/04/05 09:53:40;;;;;;;5.40;1.67;;;11.50;99.90;;;;;;5024937;28;20025;-73
2022/04/05 09:56:13;;;;;;;9.07;2.33;;;11.60;99.90;;;;;;5033181;28;20042;-73
2022/04/05 09:58:54;;;;;;;6.65;2.40;;;11.30;99.90;;;;;;5033031;28;20072;-73
2022/04/05 10:01:25;;;;;;;5.00;2.00;;;11.60;99.90;;;;;;5031386;28;20041;-73
2022/04/05 10:04:01;;;;;;;4.57;2.20;;;11.20;99.90;;;;;;5049759;28;20057;-74
2022/04/05 10:06:30;;;;;;;6.43;2.10;;;11.00;99.90;;;;;;5032717;28;20039;-73
2022/04/05 10:08:56;;;;;;;3.22;1.48;;;11.00;99.90;;;;;;5066258;28;20335;-73
2022/04/05 10:11:28;;;;;;;3.45;1.70;;;11.00;99.90;;;;;;4999505;28;20045;-73
2022/04/05 10:13:55;;;;;;;5.65;2.30;;;11.00;99.90;;;;;;5032872;28;20053;-73
2022/04/05 10:16:24;;;;;;;6.07;2.10;;;11.70;99.90;;;;;;5066383;28;20346;-74
2022/04/05 10:18:51;;;;;;;5.50;2.05;;;11.10;99.90;;;;;;5049501;28;20316;-73
2022/04/05 10:21:20;;;;;;;4.93;2.13;;;11.80;99.90;;;;;;5014805;28;20025;-73
2022/04/05 10:23:47;;;;;;;4.65;2.17;;;11.40;99.90;;;;;;5045068;28;20193;-73
2022/04/05 10:26:18;;;;;;;6.10;2.58;;;11.30;99.90;;;;;;5032665;28;20080;-73
2022/04/05 10:28:48;;;;;;;3.55;2.22;;;11.80;99.90;;;;;;5032423;28;20294;-73
2022/04/05 10:31:42;;;;;;;6.93;2.33;;;11.50;99.90;;;;;;5030711;28;20109;-75
2022/04/05 10:34:11;;;;;;;6.00;2.78;;;11.60;99.90;;;;;;5032323;28;20096;-74
2022/04/05 10:36:37;;;;;;;3.60;1.88;;;12.20;99.90;;;;;;5032353;28;20258;-74
2022/04/05 10:39:18;;;;;;;5.65;2.30;;;12.50;99.90;;;;;;5028027;28;20045;-74
2022/04/05 10:42:04;;;;;;;4.60;2.00;;;11.80;99.90;;;;;;5014827;28;20037;-74
2022/04/05 10:44:30;;;;;;;3.17;2.13;;;11.80;99.90;;;;;;5034295;28;20099;-74
2022/04/05 10:46:58;;;;;;;4.07;1.80;;;11.70;99.90;;;;;;5029731;28;20068;-73
2022/04/05 10:49:39;;;;;;;2.70;1.75;;;12.10;99.90;;;;;;5024514;28;20046;-73
2022/04/05 10:52:32;;;;;;;4.88;2.20;;;12.00;99.90;;;;;;5022509;28;20041;-74
2022/04/05 10:55:06;;;;;;;6.03;2.53;;;12.10;99.90;;;;;;5069143;28;20049;-74
2022/04/05 10:57:34;;;;;;;2.60;2.00;;;13.00;99.90;;;;;;5019038;28;20041;-73
2022/04/05 11:00:12;;;;;;;3.65;2.00;;;12.50;99.90;;;;;;5019788;28;20091;-73
2022/04/05 11:02:44;;;;;;;2.90;1.90;;;12.60;99.90;;;;;;5051543;28;20377;-74
2022/04/05 11:05:18;;;;;;;2.58;1.60;;;13.60;99.90;;;;;;5035360;28;20045;-73
2022/04/05 11:08:01;;;;;;;3.17;2.03;;;14.20;99.90;;;;;;5035306;28;20148;-73
2022/04/05 11:10:29;;;;;;;3.55;1.80;;;14.10;99.90;;;;;;5035098;28;20369;-74
2022/04/05 11:13:05;;;;;;;3.45;2.15;;;12.80;99.90;;;;;;5002551;28;20224;-74
2022/04/05 11:15:48;;;;;;;4.70;1.65;;;13.40;99.90;;;;;;5035275;28;20104;-73
2022/04/05 11:18:15;;;;;;;1.92;1.50;;;13.60;99.90;;;;;;5068836;28;20056;-73
2022/04/05 11:20:42;;;;;;;2.90;1.60;;;13.20;99.90;;;;;;5002335;28;20352;-73
2022/04/05 11:23:09;;;;;;;2.95;1.52;;;13.00;99.90;;;;;;5067574;28;20284;-73
2022/04/05 11:25:35;;;;;;;3.17;1.40;;;13.00;99.90;;;;;;5034874;28;20080;-73
2022/04/05 11:28:21;;;;;;;1.98;1.38;;;13.10;99.90;;;;;;5068597;28;20132;-73
2022/04/05 11:31:02;;;;;;;2.78;1.40;;;12.70;99.90;;;;;;5067762;28;20379;-73
2022/04/05 11:33:31;;;;;;;2.30;1.60;;;13.00;99.90;;;;;;5033539;28;20048;-74
2022/04/05 11:36:13;;;;;;;2.50;1.90;;;13.00;99.90;;;;;;5035360;28;20053;-74
2022/04/05 11:38:59;;;;;;;3.03;1.67;;;13.30;99.90;;;;;;5034694;28;20049;-74
2022/04/05 11:41:30;;;;;;;4.35;1.52;;;13.40;99.90;;;;;;5068336;28;20037;-73
2022/04/05 11:44:01;;;;;;;2.17;1.83;;;13.50;99.90;;;;;;5034429;28;20255;-73
2022/04/05 11:46:34;;;;;;;2.63;1.77;;;13.30;99.90;;;;;;5002318;28;20038;-73
2022/04/05 11:49:03;;;;;;;2.60;2.08;;;13.40;99.90;;;;;;5018688;28;20336;-74
2022/04/05 11:51:34;;;;;;;2.38;2.05;;;13.80;99.90;;;;;;5068108;28;20240;-74
2022/04/05 11:54:13;;;;;;;4.50;2.50;;;13.10;99.90;;;;;;5017878;28;20116;-74
2022/04/05 11:56:41;;;;;;;3.13;1.90;;;13.80;99.90;;;;;;5067305;28;20033;-74
2022/04/05 11:59:09;;;;;;;3.05;2.00;;;13.80;99.90;;;;;;5068327;28;20037;-74
2022/04/05 12:01:37;;;;;;;2.58;2.10;;;13.90;99.90;;;;;;5017901;28;20053;-73
2022/04/05 12:04:13;;;;;;;2.95;1.90;;;13.70;99.90;;;;;;5067232;28;20331;-73
2022/04/05 12:06:44;;;;;;;2.88;1.85;;;13.80;99.90;;;;;;5031316;28;20045;-73
2022/04/05 12:09:12;;;;;;;2.85;2.13;;;13.10;99.90;;;;;;5068083;28;20045;-74
2022/04/05 12:11:39;;;;;;;3.17;2.10;;;13.40;99.90;;;;;;5034222;28;20108;-74
2022/04/05 12:14:10;;;;;;;2.65;2.33;;;14.10;99.90;;;;;;5067998;28;20488;-73
2022/04/05 12:16:49;;;;;;;3.42;2.80;;;13.30;99.90;;;;;;5016185;28;20042;-73
2022/04/05 12:19:39;;;;;;;2.58;2.17;;;14.10;99.90;;;;;;5032958;28;20423;-73
2022/04/05 12:22:10;;;;;;;2.00;1.77;;;13.60;99.90;;;;;;5067710;28;20329;-73
2022/04/05 12:24:50;;;;;;;2.25;2.00;;;14.10;99.90;;;;;;5067030;28;20049;-74
2022/04/05 12:27:19;;;;;;;2.58;2.15;;;14.50;99.90;;;;;;5034289;28;20228;-73
2022/04/05 12:29:45;;;;;;;2.15;1.95;;;14.70;99.90;;;;;;5049624;28;20508;-73
2022/04/05 12:32:13;;;;;;;2.47;1.90;;;13.90;99.90;;;;;;5050938;28;20037;-73
2022/04/05 12:34:40;;;;;;;2.13;1.80;;;14.20;99.90;;;;;;5001000;28;20345;-73
2022/04/05 12:37:12;;;;;;;2.17;1.90;;;14.10;99.90;;;;;;5033960;28;20052;-73
2022/04/05 12:39:48;;;;;;;4.82;3.97;;;13.90;99.90;;;;;;5016755;28;20033;-74
2022/04/05 12:42:14;;;;;;;2.30;1.88;;;13.90;99.90;;;;;;5034047;28;20075;-75
2022/04/05 12:44:41;;;;;;;2.15;1.70;;;13.70;99.90;;;;;;5033717;28;20049;-75
2022/04/05 12:47:10;;;;;;;2.20;1.70;;;14.10;99.90;;;;;;5034346;28;20041;-75
2022/04/05 12:49:40;;;;;;;3.17;1.90;;;13.40;99.90;;;;;;5032594;28;20041;-74